Time;durP1;ratioP1;P1;durP2;ratioP2;P2;SDS_P1;SDS_P2;PMS_P1;PMS_P2;Temp;Humidity;BMP_temperature;BMP_pressure;BME280_temperature;BME280_humidity;BME280_pressure;Samples;Min_cycle;Max_cycle;Signal;HPM_P1;HPM_P2
2022/07/26 00:01:05;;;;;;;0.30;0.30;;;18.50;99.90;;;;;;4916362;28;20382;-80
2022/07/26 00:03:31;;;;;;;0.30;0.30;;;18.60;99.90;;;;;;4906288;28;20050;-81
2022/07/26 00:05:57;;;;;;;0.30;0.30;;;18.50;99.90;;;;;;4923590;28;20047;-79
2022/07/26 00:08:24;;;;;;;0.30;0.30;;;18.50;99.90;;;;;;4921493;28;20165;-79
2022/07/26 00:10:50;;;;;;;0.30;0.30;;;18.50;99.90;;;;;;4917107;28;20058;-79
2022/07/26 00:13:19;;;;;;;0.30;0.30;;;18.60;99.90;;;;;;4934816;28;20058;-79
2022/07/26 00:15:46;;;;;;;0.32;0.32;;;18.60;99.90;;;;;;4933744;28;20137;-79
2022/07/26 00:18:13;;;;;;;0.30;0.30;;;18.60;99.90;;;;;;4918508;28;20070;-80
2022/07/26 00:20:40;;;;;;;0.30;0.30;;;18.50;99.90;;;;;;4934808;28;20069;-79
2022/07/26 00:23:06;;;;;;;0.30;0.30;;;18.60;99.90;;;;;;4923084;28;20059;-79
2022/07/26 00:25:32;;;;;;;0.30;0.30;;;18.50;99.90;;;;;;4919678;28;20054;-79
2022/07/26 00:27:57;;;;;;;0.30;0.30;;;18.60;99.90;;;;;;4933308;28;20046;-82
2022/07/26 00:30:24;;;;;;;0.30;0.30;;;18.60;99.90;;;;;;4907149;28;20468;-80
2022/07/26 00:32:51;;;;;;;0.30;0.30;;;18.60;99.90;;;;;;4935503;28;20803;-80
2022/07/26 00:35:18;;;;;;;0.30;0.30;;;18.60;99.90;;;;;;4924549;28;20050;-80
2022/07/26 00:37:43;;;;;;;0.30;0.30;;;18.50;99.90;;;;;;4945244;28;20778;-79
2022/07/26 00:40:10;;;;;;;0.30;0.30;;;18.60;99.90;;;;;;4950929;28;20549;-80
2022/07/26 00:42:36;;;;;;;0.30;0.30;;;18.60;99.90;;;;;;4957158;28;20746;-80
2022/07/26 00:45:04;;;;;;;0.30;0.30;;;18.60;99.90;;;;;;4930182;28;20081;-79
2022/07/26 00:47:31;;;;;;;0.30;0.30;;;18.50;99.90;;;;;;4932326;28;20054;-80
2022/07/26 00:49:56;;;;;;;0.30;0.30;;;18.60;99.90;;;;;;4951119;28;20039;-80
2022/07/26 00:52:23;;;;;;;0.40;0.40;;;18.60;99.90;;;;;;4953836;28;20157;-80
2022/07/26 00:54:49;;;;;;;0.40;0.40;;;18.60;99.90;;;;;;4927405;28;20105;-81
2022/07/26 00:57:15;;;;;;;0.30;0.30;;;18.50;99.90;;;;;;4937839;28;20054;-79
2022/07/26 00:59:41;;;;;;;0.30;0.30;;;18.60;99.90;;;;;;4950103;28;21568;-80
2022/07/26 01:02:08;;;;;;;0.30;0.30;;;18.50;99.90;;;;;;4947798;28;20157;-80
2022/07/26 01:04:35;;;;;;;0.40;0.40;;;18.60;99.90;;;;;;4930870;28;20043;-79
2022/07/26 01:07:02;;;;;;;0.30;0.30;;;18.50;99.90;;;;;;4951685;28;20101;-79
2022/07/26 01:09:28;;;;;;;0.40;0.40;;;18.50;99.90;;;;;;4930556;28;20070;-80
2022/07/26 01:11:54;;;;;;;0.30;0.30;;;18.40;99.90;;;;;;4946710;28;20087;-80
2022/07/26 01:14:21;;;;;;;0.30;0.30;;;18.40;99.90;;;;;;4948862;28;20505;-79
2022/07/26 01:16:48;;;;;;;0.38;0.38;;;18.30;99.90;;;;;;4923088;28;20789;-79
2022/07/26 01:19:13;;;;;;;0.30;0.30;;;18.30;99.90;;;;;;4936490;28;20038;-79
2022/07/26 01:21:39;;;;;;;0.30;0.30;;;18.20;99.90;;;;;;4920216;28;20405;-80
2022/07/26 01:24:05;;;;;;;0.30;0.30;;;18.30;99.90;;;;;;4906352;28;20172;-80
2022/07/26 01:26:31;;;;;;;0.30;0.30;;;18.20;99.90;;;;;;4917183;28;20055;-81
2022/07/26 01:28:57;;;;;;;0.30;0.30;;;18.20;99.90;;;;;;4929636;28;20516;-79
2022/07/26 01:31:23;;;;;;;0.30;0.30;;;18.10;99.90;;;;;;4925704;28;20050;-79
2022/07/26 01:33:50;;;;;;;0.30;0.30;;;18.10;99.90;;;;;;4922293;28;20062;-80
2022/07/26 01:36:15;;;;;;;0.30;0.30;;;18.00;99.90;;;;;;4896356;28;20303;-81
2022/07/26 01:38:42;;;;;;;0.40;0.40;;;18.00;99.90;;;;;;4916392;28;20057;-79
2022/07/26 01:41:08;;;;;;;0.35;0.35;;;18.00;99.90;;;;;;4919362;28;20872;-79
2022/07/26 01:43:35;;;;;;;0.30;0.30;;;17.90;99.90;;;;;;4922631;28;20066;-79
2022/07/26 01:46:02;;;;;;;0.30;0.30;;;17.90;99.90;;;;;;4928083;28;20058;-80
2022/07/26 01:48:28;;;;;;;0.30;0.30;;;17.80;99.90;;;;;;4918591;28;20074;-80
2022/07/26 01:50:54;;;;;;;0.40;0.40;;;17.80;99.90;;;;;;4917525;28;20047;-80
2022/07/26 01:53:20;;;;;;;0.30;0.30;;;17.70;99.90;;;;;;4923623;28;20050;-80
2022/07/26 01:55:46;;;;;;;0.30;0.30;;;17.80;99.90;;;;;;4914323;28;20501;-81
2022/07/26 01:58:12;;;;;;;0.30;0.30;;;17.70;99.90;;;;;;4919490;28;20055;-80
2022/07/26 02:00:37;;;;;;;0.30;0.30;;;17.60;99.90;;;;;;4927296;28;20874;-79
2022/07/26 02:03:03;;;;;;;0.30;0.30;;;17.80;99.90;;;;;;4898724;28;20097;-81
2022/07/26 02:05:29;;;;;;;0.30;0.30;;;17.70;99.90;;;;;;4922859;28;20765;-81
2022/07/26 02:07:55;;;;;;;0.30;0.30;;;17.70;99.90;;;;;;4927113;28;21007;-80
2022/07/26 02:10:22;;;;;;;0.30;0.30;;;17.70;99.90;;;;;;4936710;28;20054;-80
2022/07/26 02:12:48;;;;;;;0.30;0.30;;;17.70;99.90;;;;;;4934563;28;20070;-80
2022/07/26 02:15:15;;;;;;;0.30;0.30;;;17.50;99.90;;;;;;4936049;28;20082;-80
2022/07/26 02:17:41;;;;;;;0.30;0.30;;;17.50;99.90;;;;;;4934919;28;20050;-81
2022/07/26 02:20:07;;;;;;;0.30;0.30;;;17.50;99.90;;;;;;4937608;28;20054;-80
2022/07/26 02:22:34;;;;;;;0.30;0.30;;;17.50;99.90;;;;;;4933277;28;20043;-79
2022/07/26 02:24:59;;;;;;;0.30;0.30;;;17.50;99.90;;;;;;4919185;28;20077;-81
2022/07/26 02:27:25;;;;;;;0.30;0.30;;;17.30;99.90;;;;;;4914619;28;20512;-79
2022/07/26 02:29:51;;;;;;;0.30;0.30;;;17.30;99.90;;;;;;4914281;28;20649;-80
2022/07/26 02:32:17;;;;;;;0.30;0.30;;;17.30;99.90;;;;;;4898235;28;20054;-80
2022/07/26 02:34:43;;;;;;;0.30;0.30;;;17.30;99.90;;;;;;4921278;28;20055;-80
2022/07/26 02:37:09;;;;;;;0.30;0.30;;;17.30;99.90;;;;;;4920636;28;20054;-81
2022/07/26 02:39:34;;;;;;;0.30;0.30;;;17.20;99.90;;;;;;4917064;28;20051;-80
2022/07/26 02:42:01;;;;;;;0.30;0.30;;;17.10;99.90;;;;;;4905058;28;20055;-80
2022/07/26 02:44:28;;;;;;;0.40;0.40;;;17.10;99.90;;;;;;4932760;28;20130;-80
2022/07/26 02:46:54;;;;;;;0.30;0.30;;;17.00;99.90;;;;;;4933683;28;20058;-80
2022/07/26 02:49:20;;;;;;;0.30;0.30;;;17.10;99.90;;;;;;4925714;28;20058;-80
2022/07/26 02:51:47;;;;;;;0.30;0.30;;;17.10;99.90;;;;;;4921369;28;20050;-79
2022/07/26 02:54:13;;;;;;;0.30;0.30;;;17.10;99.90;;;;;;4922612;28;20101;-80
2022/07/26 02:56:39;;;;;;;0.30;0.30;;;17.10;99.90;;;;;;4937426;28;20050;-80
2022/07/26 02:59:06;;;;;;;0.30;0.30;;;17.10;99.90;;;;;;4923100;28;20081;-80
2022/07/26 03:01:34;;;;;;;0.30;0.30;;;17.10;99.90;;;;;;4922700;28;20057;-80
2022/07/26 03:04:00;;;;;;;0.40;0.40;;;17.10;99.90;;;;;;4956017;28;20185;-81
2022/07/26 03:06:26;;;;;;;0.30;0.30;;;17.10;99.90;;;;;;4918723;28;20057;-80
2022/07/26 03:08:52;;;;;;;0.40;0.40;;;17.10;99.90;;;;;;4936153;28;20058;-80
2022/07/26 03:11:18;;;;;;;0.32;0.32;;;17.10;99.90;;;;;;4949022;28;20133;-80
2022/07/26 03:13:44;;;;;;;0.30;0.30;;;17.20;99.90;;;;;;4933739;28;20575;-79
2022/07/26 03:16:09;;;;;;;0.30;0.30;;;17.10;99.90;;;;;;4930574;28;20058;-79
2022/07/26 03:18:35;;;;;;;0.30;0.30;;;17.20;99.90;;;;;;4922591;28;20054;-80
2022/07/26 03:21:01;;;;;;;0.35;0.35;;;17.30;99.90;;;;;;4926884;28;20385;-80
2022/07/26 03:23:27;;;;;;;0.30;0.30;;;17.20;99.90;;;;;;4907803;28;20050;-80
2022/07/26 03:25:53;;;;;;;0.30;0.30;;;17.30;99.90;;;;;;4941952;28;20058;-80
2022/07/26 03:28:19;;;;;;;0.30;0.30;;;17.30;99.90;;;;;;4923527;28;20050;-80
2022/07/26 03:30:44;;;;;;;0.30;0.30;;;17.30;99.90;;;;;;4924956;28;20058;-80
2022/07/26 03:33:10;;;;;;;0.40;0.40;;;17.30;99.90;;;;;;4936494;28;20064;-80
2022/07/26 03:35:36;;;;;;;0.30;0.30;;;17.30;99.90;;;;;;4919994;28;20580;-81
2022/07/26 03:38:09;;;;;;;0.30;0.30;;;17.30;99.90;;;;;;4922536;28;20047;-79
2022/07/26 03:40:35;;;;;;;0.30;0.30;;;17.40;99.90;;;;;;4906442;28;20034;-80
2022/07/26 03:43:01;;;;;;;0.30;0.30;;;17.40;99.90;;;;;;4921772;28;20743;-79
2022/07/26 03:45:28;;;;;;;0.30;0.30;;;17.40;99.90;;;;;;4919195;28;20058;-79
2022/07/26 03:47:53;;;;;;;0.30;0.30;;;17.50;99.90;;;;;;4920254;28;20058;-79
2022/07/26 03:50:19;;;;;;;0.30;0.30;;;17.50;99.90;;;;;;4915368;28;20495;-78
2022/07/26 03:52:46;;;;;;;0.30;0.30;;;17.60;99.90;;;;;;4917546;28;20235;-79
2022/07/26 03:57:56;;;;;;;;;;;17.60;99.90;;;;;;4922486;28;20774;-79
2022/07/26 04:00:22;;;;;;;0.30;0.30;;;17.60;99.90;;;;;;4919459;28;19927;-79
2022/07/26 04:02:48;;;;;;;0.35;0.35;;;17.50;99.90;;;;;;4920195;28;20409;-79
2022/07/26 04:05:13;;;;;;;0.30;0.30;;;17.60;99.90;;;;;;4920527;28;20158;-79
2022/07/26 04:07:46;;;;;;;0.30;0.30;;;17.50;99.90;;;;;;4920442;28;20050;-79
2022/07/26 04:10:14;;;;;;;0.38;0.38;;;17.50;99.90;;;;;;4920579;28;20507;-79
2022/07/26 04:12:40;;;;;;;0.30;0.30;;;17.40;99.90;;;;;;4917164;28;20078;-80
2022/07/26 04:15:06;;;;;;;0.30;0.30;;;17.30;99.90;;;;;;4914616;28;20054;-79
2022/07/26 04:17:40;;;;;;;0.30;0.30;;;17.30;99.90;;;;;;4916638;28;20078;-80
2022/07/26 04:20:07;;;;;;;0.30;0.30;;;17.30;99.90;;;;;;4919670;28;20890;-80
2022/07/26 04:22:35;;;;;;;0.30;0.30;;;17.30;99.90;;;;;;4920039;28;20505;-80
2022/07/26 04:25:01;;;;;;;0.40;0.40;;;17.30;99.90;;;;;;4917799;28;20051;-80
2022/07/26 04:27:26;;;;;;;0.30;0.30;;;17.40;99.90;;;;;;4920164;28;20057;-78
2022/07/26 04:29:52;;;;;;;0.30;0.30;;;17.50;99.90;;;;;;4917480;28;20972;-80
2022/07/26 04:32:18;;;;;;;0.40;0.40;;;17.40;99.90;;;;;;4925327;28;20409;-80
2022/07/26 04:34:44;;;;;;;0.30;0.30;;;17.60;99.90;;;;;;4922237;28;20157;-79
2022/07/26 04:37:11;;;;;;;0.30;0.30;;;17.50;99.90;;;;;;4922705;28;20486;-80
2022/07/26 04:39:37;;;;;;;0.40;0.40;;;17.60;99.90;;;;;;4915665;28;20043;-82
2022/07/26 04:42:03;;;;;;;0.30;0.30;;;17.70;99.90;;;;;;4919428;28;21625;-79
2022/07/26 04:44:29;;;;;;;0.30;0.30;;;17.50;99.90;;;;;;4921178;28;20142;-80
2022/07/26 04:46:55;;;;;;;0.30;0.30;;;17.50;99.90;;;;;;4921756;28;21031;-81
2022/07/26 04:49:20;;;;;;;0.30;0.30;;;17.60;99.90;;;;;;4920358;28;20149;-82
2022/07/26 04:51:46;;;;;;;0.30;0.30;;;17.60;99.90;;;;;;4919545;28;20074;-81
2022/07/26 04:54:14;;;;;;;0.30;0.30;;;17.60;99.90;;;;;;4919449;28;20477;-82
2022/07/26 04:56:40;;;;;;;0.30;0.30;;;17.70;99.90;;;;;;4923920;28;20082;-82
2022/07/26 04:59:06;;;;;;;0.30;0.30;;;17.60;99.90;;;;;;4937079;28;20157;-83
2022/07/26 05:01:32;;;;;;;0.30;0.30;;;17.70;99.90;;;;;;4931880;28;20162;-82
2022/07/26 05:03:57;;;;;;;0.30;0.30;;;17.70;99.90;;;;;;4932164;28;20130;-82
2022/07/26 05:06:23;;;;;;;0.30;0.30;;;17.80;99.90;;;;;;4932222;28;20058;-82
2022/07/26 05:08:49;;;;;;;0.30;0.30;;;17.70;99.90;;;;;;4939566;28;20573;-83
2022/07/26 05:11:15;;;;;;;0.30;0.30;;;17.70;99.90;;;;;;4917770;28;20058;-82
2022/07/26 05:13:40;;;;;;;0.30;0.30;;;17.70;99.90;;;;;;4936616;28;20863;-83
2022/07/26 05:16:06;;;;;;;0.32;0.32;;;17.70;99.90;;;;;;4934522;28;20047;-82
2022/07/26 05:18:32;;;;;;;0.30;0.30;;;17.80;99.90;;;;;;4933446;28;20039;-83
2022/07/26 05:20:58;;;;;;;0.30;0.30;;;17.80;99.90;;;;;;4934237;28;20066;-82
2022/07/26 05:23:23;;;;;;;0.30;0.30;;;17.90;99.90;;;;;;4918636;28;20039;-81
2022/07/26 05:25:49;;;;;;;0.30;0.30;;;17.90;99.90;;;;;;4935369;28;20933;-82
2022/07/26 05:28:15;;;;;;;0.30;0.30;;;18.00;99.90;;;;;;4935695;28;20066;-81
2022/07/26 05:30:41;;;;;;;0.30;0.30;;;18.10;99.90;;;;;;4918030;28;20145;-82
2022/07/26 05:33:07;;;;;;;0.30;0.30;;;18.00;99.90;;;;;;4931770;28;20383;-82
2022/07/26 05:35:32;;;;;;;0.30;0.30;;;18.10;99.90;;;;;;4918574;28;20054;-81
2022/07/26 05:37:58;;;;;;;0.30;0.30;;;18.10;99.90;;;;;;4933998;28;20055;-82
2022/07/26 05:40:24;;;;;;;0.30;0.30;;;18.30;99.90;;;;;;4933178;28;21351;-80
2022/07/26 05:42:50;;;;;;;0.30;0.30;;;18.40;99.90;;;;;;4937744;28;20047;-81
2022/07/26 05:45:16;;;;;;;0.30;0.30;;;18.40;99.90;;;;;;4938823;28;20047;-81
2022/07/26 05:47:41;;;;;;;0.30;0.30;;;18.40;99.90;;;;;;4952099;28;20063;-83
2022/07/26 05:50:08;;;;;;;0.30;0.30;;;18.40;99.90;;;;;;4937745;28;20278;-81
2022/07/26 05:52:33;;;;;;;0.30;0.30;;;18.40;99.90;;;;;;4953605;28;20442;-81
2022/07/26 05:54:59;;;;;;;0.30;0.30;;;18.50;99.90;;;;;;4933606;28;20053;-81
2022/07/26 05:57:25;;;;;;;0.30;0.30;;;18.60;99.90;;;;;;4936677;28;20051;-81
2022/07/26 05:59:51;;;;;;;0.30;0.30;;;18.70;99.90;;;;;;4950326;28;20050;-81
2022/07/26 06:02:17;;;;;;;0.30;0.30;;;18.70;99.90;;;;;;4937921;28;20081;-82
2022/07/26 06:04:44;;;;;;;0.30;0.30;;;18.60;99.90;;;;;;4936676;28;20081;-81
2022/07/26 06:07:10;;;;;;;0.30;0.30;;;18.60;99.90;;;;;;4928685;28;20162;-80
2022/07/26 06:09:35;;;;;;;0.30;0.30;;;18.50;99.90;;;;;;4936999;28;20786;-81
2022/07/26 06:12:01;;;;;;;0.30;0.30;;;18.50;99.90;;;;;;4961850;28;20054;-81
2022/07/26 06:14:27;;;;;;;0.30;0.30;;;18.40;99.90;;;;;;4962367;28;20050;-81
2022/07/26 06:16:54;;;;;;;0.30;0.30;;;18.40;99.90;;;;;;4940762;28;20105;-81
2022/07/26 06:19:20;;;;;;;0.30;0.30;;;18.40;99.90;;;;;;4959797;28;20049;-80
2022/07/26 06:21:46;;;;;;;0.30;0.30;;;18.30;99.90;;;;;;4936034;28;20414;-81
2022/07/26 06:24:12;;;;;;;0.30;0.30;;;18.40;99.90;;;;;;4937319;28;20042;-81
2022/07/26 06:26:38;;;;;;;0.30;0.30;;;18.40;99.90;;;;;;4939379;28;20050;-80
2022/07/26 06:29:04;;;;;;;0.30;0.30;;;18.40;99.90;;;;;;4955120;28;20134;-82
2022/07/26 06:31:29;;;;;;;0.30;0.30;;;18.40;99.90;;;;;;4949246;28;20042;-81
2022/07/26 06:33:55;;;;;;;0.30;0.30;;;18.50;99.90;;;;;;4920676;28;20675;-81
2022/07/26 06:36:21;;;;;;;0.30;0.30;;;18.60;99.90;;;;;;4954328;28;20051;-81
2022/07/26 06:38:47;;;;;;;0.30;0.30;;;18.70;99.90;;;;;;4956006;28;20520;-81
2022/07/26 06:41:13;;;;;;;0.30;0.30;;;18.70;99.90;;;;;;4959070;28;20058;-81
2022/07/26 06:43:39;;;;;;;0.30;0.30;;;18.70;99.90;;;;;;4956994;28;20047;-82
2022/07/26 06:46:05;;;;;;;0.30;0.30;;;18.80;99.90;;;;;;4938135;28;20051;-81
2022/07/26 06:48:31;;;;;;;0.30;0.30;;;18.70;99.90;;;;;;4925288;28;20051;-80
2022/07/26 06:50:57;;;;;;;0.30;0.30;;;18.80;99.90;;;;;;4953864;28;20105;-81
2022/07/26 06:53:22;;;;;;;0.30;0.30;;;19.10;99.90;;;;;;4938276;28;20082;-82
2022/07/26 06:55:48;;;;;;;0.30;0.30;;;19.30;99.90;;;;;;4953420;28;20065;-82
2022/07/26 06:58:14;;;;;;;0.30;0.30;;;19.30;99.90;;;;;;4936751;28;20109;-81
2022/07/26 07:00:40;;;;;;;0.30;0.30;;;19.40;99.90;;;;;;4937051;28;20134;-82
2022/07/26 07:03:06;;;;;;;0.30;0.30;;;19.40;99.90;;;;;;4932610;28;20417;-81
2022/07/26 07:05:32;;;;;;;0.30;0.30;;;19.30;99.90;;;;;;4936872;28;20409;-81
2022/07/26 07:07:58;;;;;;;0.30;0.30;;;19.30;99.90;;;;;;4947187;28;20054;-80
2022/07/26 07:10:24;;;;;;;0.30;0.30;;;19.30;99.90;;;;;;4939171;28;20196;-80
2022/07/26 07:12:50;;;;;;;0.30;0.30;;;19.30;99.90;;;;;;4927782;28;20120;-77
2022/07/26 07:15:15;;;;;;;0.30;0.30;;;19.00;99.90;;;;;;4930604;28;20051;-80
2022/07/26 07:17:41;;;;;;;0.30;0.30;;;19.00;99.90;;;;;;4951919;28;20112;-81
2022/07/26 07:20:07;;;;;;;0.30;0.30;;;18.70;99.90;;;;;;4933184;28;20054;-81
2022/07/26 07:22:33;;;;;;;0.30;0.30;;;18.70;99.90;;;;;;4950765;28;20058;-81
2022/07/26 07:24:59;;;;;;;0.30;0.30;;;18.50;99.90;;;;;;4937239;28;20521;-80
2022/07/26 07:27:25;;;;;;;0.30;0.30;;;18.50;99.90;;;;;;4939245;28;20057;-79
2022/07/26 07:29:52;;;;;;;0.30;0.30;;;18.40;99.90;;;;;;4951696;28;20058;-81
2022/07/26 07:32:17;;;;;;;0.30;0.30;;;18.40;99.90;;;;;;4954471;28;20054;-82
2022/07/26 07:34:44;;;;;;;0.30;0.30;;;18.60;99.90;;;;;;4954254;28;20061;-80
2022/07/26 07:37:11;;;;;;;0.30;0.30;;;18.30;99.90;;;;;;4950677;28;20061;-80
2022/07/26 07:39:37;;;;;;;0.30;0.30;;;18.50;99.90;;;;;;4918156;28;20883;-81
2022/07/26 07:42:03;;;;;;;0.30;0.30;;;18.70;99.90;;;;;;4950436;28;20054;-81
2022/07/26 07:44:29;;;;;;;0.30;0.30;;;18.80;99.90;;;;;;4953451;28;20754;-81
2022/07/26 07:46:54;;;;;;;0.30;0.30;;;18.60;99.90;;;;;;4934205;28;20059;-80
2022/07/26 07:49:21;;;;;;;0.30;0.30;;;18.60;99.90;;;;;;4951840;28;20165;-80
2022/07/26 07:51:47;;;;;;;0.30;0.30;;;18.60;99.90;;;;;;4952460;28;20051;-80
2022/07/26 07:54:14;;;;;;;0.30;0.30;;;18.60;99.90;;;;;;4953925;28;20066;-81
2022/07/26 07:56:44;;;;;;;0.30;0.30;;;18.50;99.90;;;;;;4922037;28;20046;-82
2022/07/26 07:59:09;;;;;;;0.30;0.30;;;18.60;99.90;;;;;;4938708;28;20062;-80
2022/07/26 08:01:35;;;;;;;0.30;0.30;;;18.80;99.90;;;;;;4938088;28;20055;-80
2022/07/26 08:04:01;;;;;;;0.30;0.30;;;19.00;99.90;;;;;;4930919;28;20050;-81
2022/07/26 08:06:27;;;;;;;0.30;0.30;;;19.10;99.90;;;;;;4944196;28;20907;-80
2022/07/26 08:08:53;;;;;;;0.30;0.30;;;19.00;99.90;;;;;;4947186;28;20057;-80
2022/07/26 08:11:18;;;;;;;0.30;0.30;;;19.10;99.90;;;;;;4946357;28;20505;-80
2022/07/26 08:13:44;;;;;;;0.30;0.30;;;19.20;99.90;;;;;;4938350;28;20050;-80
2022/07/26 08:16:10;;;;;;;0.30;0.30;;;19.30;99.90;;;;;;4934882;28;20448;-81
2022/07/26 08:18:36;;;;;;;0.30;0.30;;;19.40;99.90;;;;;;4917070;28;20175;-80
2022/07/26 08:21:02;;;;;;;0.30;0.30;;;19.50;99.90;;;;;;4936200;28;20051;-79
2022/07/26 08:23:28;;;;;;;0.30;0.30;;;19.70;99.90;;;;;;4935309;28;20450;-82
2022/07/26 08:25:54;;;;;;;0.30;0.30;;;19.70;99.90;;;;;;4936759;28;20121;-81
2022/07/26 08:28:20;;;;;;;0.30;0.30;;;19.60;99.90;;;;;;4949533;28;20054;-83
2022/07/26 08:30:46;;;;;;;0.30;0.30;;;19.70;99.90;;;;;;4939905;28;20097;-81
2022/07/26 08:33:11;;;;;;;0.30;0.30;;;19.20;99.90;;;;;;4953549;28;20050;-81
2022/07/26 08:35:37;;;;;;;0.30;0.30;;;18.90;99.90;;;;;;4936946;28;20561;-80
2022/07/26 08:38:03;;;;;;;0.30;0.30;;;18.80;99.90;;;;;;4940479;28;20508;-81
2022/07/26 08:40:28;;;;;;;0.30;0.30;;;18.90;99.90;;;;;;4936143;28;20053;-82
2022/07/26 08:42:56;;;;;;;0.30;0.30;;;19.20;99.90;;;;;;4938538;28;20137;-81
2022/07/26 08:45:27;;;;;;;0.30;0.30;;;20.10;99.90;;;;;;4949725;28;20177;-81
2022/07/26 08:47:54;;;;;;;0.30;0.30;;;20.00;99.90;;;;;;4937800;28;20062;-82
2022/07/26 08:50:20;;;;;;;0.30;0.30;;;19.90;99.90;;;;;;4922596;28;20882;-81
2022/07/26 08:52:47;;;;;;;0.30;0.30;;;20.10;99.90;;;;;;4938426;28;20048;-81
2022/07/26 08:55:19;;;;;;;0.30;0.30;;;20.00;99.90;;;;;;4949577;28;20132;-82
2022/07/26 08:57:45;;;;;;;0.30;0.30;;;20.10;99.90;;;;;;4945757;28;20047;-81
2022/07/26 09:00:23;;;;;;;0.30;0.30;;;20.00;99.90;;;;;;4954070;28;20128;-86
2022/07/26 09:02:50;;;;;;;0.30;0.30;;;19.80;99.90;;;;;;4930200;28;20054;-82
2022/07/26 09:05:33;;;;;;;0.40;0.40;;;19.70;99.90;;;;;;4934623;28;20318;-80
2022/07/26 09:08:00;;;;;;;0.30;0.30;;;20.10;99.90;;;;;;4934009;28;20409;-83
2022/07/26 09:10:32;;;;;;;0.30;0.30;;;19.60;99.90;;;;;;4944374;28;20046;-82
2022/07/26 09:12:58;;;;;;;0.30;0.30;;;20.10;99.90;;;;;;4939087;28;20494;-81
2022/07/26 09:15:26;;;;;;;0.30;0.30;;;20.30;99.90;;;;;;4933154;28;20086;-82
2022/07/26 09:17:55;;;;;;;0.30;0.30;;;20.10;99.90;;;;;;4935344;28;20061;-82
2022/07/26 09:20:27;;;;;;;0.30;0.30;;;20.40;99.90;;;;;;4936381;28;20053;-82
2022/07/26 09:23:16;;;;;;;0.30;0.30;;;20.80;99.90;;;;;;4950555;28;20133;-81
2022/07/26 09:25:44;;;;;;;0.30;0.30;;;21.00;99.90;;;;;;4947487;28;20078;-81
2022/07/26 09:28:30;;;;;;;0.30;0.30;;;21.90;99.90;;;;;;4933686;28;20058;-79
2022/07/26 09:31:02;;;;;;;0.30;0.30;;;21.80;99.90;;;;;;4930485;28;20043;-81
2022/07/26 09:33:47;;;;;;;0.30;0.30;;;21.80;99.90;;;;;;4935266;28;20058;-81
2022/07/26 09:36:14;;;;;;;0.30;0.30;;;22.10;99.90;;;;;;4950530;28;20518;-81
2022/07/26 09:38:46;;;;;;;0.30;0.30;;;22.20;99.90;;;;;;4932705;28;20053;-81
2022/07/26 09:41:21;;;;;;;0.30;0.30;;;22.00;99.90;;;;;;4930278;28;20050;-81
2022/07/26 09:43:48;;;;;;;0.30;0.30;;;22.00;99.90;;;;;;4936249;28;20477;-81
2022/07/26 09:46:14;;;;;;;0.30;0.30;;;21.50;99.90;;;;;;4943228;28;20055;-81
2022/07/26 09:48:41;;;;;;;0.30;0.30;;;21.50;99.90;;;;;;4953280;28;20066;-81
2022/07/26 09:51:07;;;;;;;0.30;0.30;;;21.30;99.90;;;;;;4950460;28;20046;-81
2022/07/26 09:53:46;;;;;;;0.30;0.30;;;21.70;99.90;;;;;;4937789;28;20046;-81
2022/07/26 09:56:13;;;;;;;0.30;0.30;;;21.40;99.90;;;;;;4940026;28;20055;-81
2022/07/26 09:58:40;;;;;;;0.30;0.30;;;21.20;99.90;;;;;;4938787;28;20054;-80
2022/07/26 10:01:07;;;;;;;0.30;0.30;;;20.90;99.90;;;;;;4938210;28;20081;-81
2022/07/26 10:03:34;;;;;;;0.30;0.30;;;20.50;99.90;;;;;;4938760;28;20405;-83
2022/07/26 10:06:01;;;;;;;0.30;0.30;;;20.50;99.90;;;;;;4933933;28;20054;-80
2022/07/26 10:08:28;;;;;;;0.30;0.30;;;20.40;99.90;;;;;;4947115;28;20047;-82
2022/07/26 10:11:05;;;;;;;0.30;0.30;;;20.00;99.90;;;;;;4957325;28;20058;-81
2022/07/26 10:13:31;;;;;;;0.30;0.30;;;20.10;99.90;;;;;;4920016;28;20065;-81
2022/07/26 10:15:57;;;;;;;0.30;0.30;;;20.30;99.90;;;;;;4938057;28;20475;-83
2022/07/26 10:18:35;;;;;;;0.30;0.30;;;20.20;99.90;;;;;;4922704;28;20050;-80
2022/07/26 10:21:21;;;;;;;0.20;0.20;;;20.10;99.90;;;;;;4937732;28;20595;-81
2022/07/26 10:23:57;;;;;;;0.20;0.20;;;20.40;99.90;;;;;;4939052;28;20158;-81
2022/07/26 10:26:31;;;;;;;0.30;0.30;;;20.70;99.90;;;;;;4935876;28;20062;-82
2022/07/26 10:29:25;;;;;;;0.25;0.25;;;20.70;99.90;;;;;;4947820;28;20055;-82
2022/07/26 10:31:59;;;;;;;0.30;0.30;;;20.50;99.90;;;;;;4927850;28;20090;-83
2022/07/26 10:34:38;;;;;;;0.30;0.30;;;21.20;99.90;;;;;;4939620;28;20995;-81
2022/07/26 10:37:10;;;;;;;0.30;0.30;;;21.60;99.90;;;;;;4937416;28;20078;-82
2022/07/26 10:39:36;;;;;;;0.20;0.20;;;22.00;99.90;;;;;;4953266;28;20055;-80
2022/07/26 10:42:03;;;;;;;0.30;0.30;;;22.90;99.90;;;;;;4950062;28;20121;-81
2022/07/26 10:44:34;;;;;;;0.30;0.30;;;22.60;99.90;;;;;;4934469;28;20146;-81
2022/07/26 10:47:06;;;;;;;0.30;0.30;;;22.70;99.90;;;;;;4938709;28;20146;-83
2022/07/26 10:49:35;;;;;;;0.30;0.30;;;22.40;99.90;;;;;;4929255;28;20075;-82
2022/07/26 10:52:22;;;;;;;0.20;0.20;;;22.50;99.90;;;;;;4938576;28;20069;-80
2022/07/26 10:55:00;;;;;;;0.30;0.30;;;22.80;99.90;;;;;;4947714;28;20386;-82
2022/07/26 10:57:28;;;;;;;0.20;0.20;;;22.90;99.90;;;;;;4956681;28;20182;-80
2022/07/26 10:59:57;;;;;;;0.30;0.30;;;22.70;99.90;;;;;;4957439;28;20547;-81
2022/07/26 11:02:32;;;;;;;0.22;0.22;;;22.70;99.90;;;;;;4952560;28;20131;-81
2022/07/26 11:05:03;;;;;;;0.30;0.30;;;22.30;99.90;;;;;;4939374;28;20081;-81
2022/07/26 11:07:30;;;;;;;0.30;0.30;;;22.30;99.90;;;;;;4947516;28;20560;-81
2022/07/26 11:09:57;;;;;;;0.30;0.30;;;21.90;99.90;;;;;;4931627;28;20702;-82
2022/07/26 11:12:23;;;;;;;0.30;0.30;;;21.40;99.90;;;;;;4916538;28;20050;-81
2022/07/26 11:14:50;;;;;;;0.30;0.30;;;20.80;99.90;;;;;;4912958;28;20065;-81
2022/07/26 11:17:29;;;;;;;0.30;0.30;;;20.40;99.90;;;;;;4934168;28;20052;-83
2022/07/26 11:19:56;;;;;;;0.30;0.30;;;20.40;99.90;;;;;;4935506;28;20056;-83
2022/07/26 11:22:33;;;;;;;0.30;0.30;;;20.60;99.90;;;;;;4933088;28;20863;-79
2022/07/26 11:24:59;;;;;;;0.30;0.30;;;20.40;99.90;;;;;;4926721;28;20053;-79
2022/07/26 11:27:24;;;;;;;0.30;0.30;;;20.70;99.90;;;;;;4921254;28;20058;-81
2022/07/26 11:29:50;;;;;;;0.30;0.30;;;20.80;99.90;;;;;;4936123;28;20161;-80
2022/07/26 11:32:21;;;;;;;0.30;0.30;;;21.20;99.90;;;;;;4916505;28;20401;-79
2022/07/26 11:34:56;;;;;;;0.30;0.30;;;21.30;99.90;;;;;;4930570;28;20066;-80
2022/07/26 11:37:21;;;;;;;0.95;0.40;;;21.00;99.90;;;;;;4937748;28;20081;-79
2022/07/26 11:39:47;;;;;;;0.30;0.30;;;20.90;99.90;;;;;;4940126;28;20060;-80
2022/07/26 11:42:15;;;;;;;0.30;0.30;;;20.80;99.90;;;;;;4917800;28;20046;-82
2022/07/26 11:44:46;;;;;;;0.30;0.30;;;21.30;99.90;;;;;;4911123;28;20982;-83
2022/07/26 11:47:14;;;;;;;0.30;0.30;;;21.50;99.90;;;;;;4936018;28;20602;-81
2022/07/26 11:49:40;;;;;;;0.30;0.30;;;21.30;99.90;;;;;;4926883;28;20081;-82
2022/07/26 11:52:06;;;;;;;0.30;0.30;;;20.80;99.90;;;;;;4907225;28;21999;-81
2022/07/26 11:54:50;;;;;;;0.30;0.30;;;20.50;99.90;;;;;;4947168;28;20982;-81
2022/07/26 11:57:16;;;;;;;;;;;20.40;99.90;;;;;;4941552;28;20513;-80
2022/07/26 11:59:44;;;;;;;0.30;0.30;;;20.40;99.90;;;;;;4926895;28;19989;-81
2022/07/26 12:02:12;;;;;;;0.30;0.30;;;20.50;99.90;;;;;;4925463;28;20058;-81
2022/07/26 12:04:40;;;;;;;0.30;0.30;;;20.30;99.90;;;;;;4942001;28;21026;-82
2022/07/26 12:07:17;;;;;;;0.30;0.30;;;20.40;99.90;;;;;;4941248;28;20046;-82
2022/07/26 12:09:49;;;;;;;0.30;0.30;;;20.30;99.90;;;;;;4954712;28;20058;-81
2022/07/26 12:12:27;;;;;;;0.30;0.30;;;20.20;99.90;;;;;;4934549;28;20122;-79
2022/07/26 12:15:01;;;;;;;0.30;0.30;;;20.60;99.90;;;;;;4946330;28;20081;-82
2022/07/26 12:17:27;;;;;;;0.30;0.30;;;20.30;99.90;;;;;;4923588;28;20100;-82
2022/07/26 12:19:53;;;;;;;0.30;0.30;;;20.60;99.90;;;;;;4935605;28;20141;-80
2022/07/26 12:22:21;;;;;;;0.30;0.30;;;21.00;99.90;;;;;;4956396;28;20769;-82
2022/07/26 12:24:50;;;;;;;0.30;0.30;;;21.00;99.90;;;;;;4955637;28;20062;-82
2022/07/26 12:27:20;;;;;;;0.30;0.30;;;21.20;99.90;;;;;;4940780;28;20077;-81
2022/07/26 12:29:55;;;;;;;0.30;0.30;;;21.60;99.90;;;;;;4933579;28;20511;-80
2022/07/26 12:32:30;;;;;;;0.30;0.30;;;21.60;99.90;;;;;;4932493;28;20057;-80
2022/07/26 12:35:00;;;;;;;0.30;0.30;;;21.50;99.90;;;;;;4935320;28;20153;-82
2022/07/26 12:37:30;;;;;;;0.30;0.30;;;21.40;99.90;;;;;;4934568;28;20551;-81
2022/07/26 12:40:06;;;;;;;0.30;0.30;;;21.00;99.90;;;;;;4946342;28;20047;-82
2022/07/26 12:42:37;;;;;;;0.30;0.30;;;20.90;99.90;;;;;;4935778;28;20050;-80
2022/07/26 12:45:08;;;;;;;0.30;0.30;;;21.00;99.90;;;;;;4930718;28;20058;-82
2022/07/26 12:47:36;;;;;;;0.30;0.30;;;21.20;99.90;;;;;;4926454;28;20517;-81
2022/07/26 12:50:07;;;;;;;0.30;0.30;;;21.40;99.90;;;;;;4912405;28;20051;-81
2022/07/26 12:52:34;;;;;;;0.30;0.30;;;21.30;99.90;;;;;;4948790;28;20053;-82